Capitol Logistics 2392

Operating for ATN



PKWA
Bucholz AAF Airport
Kwajalein Atoll, MH
PHNL
Daniel K Inouye International Airport
Honolulu, US

Activity Log

Date Flight Route Aircraft Duration
No Flights Yet

Route Details

Aircraft Information
Primary: Boeing 757-200SF
Backup: Not Available
Route Data
Distance: 2127nm
Duration: 4h 04m
Recm'd Route: NDJ 1130N/17200E MANRE R584 MCFLY R584 CHOKO
Origin Wx: PKWA 180200Z AUTO 13008KT 10SM SCT016 30/24 A2975 RMK AO2 T03010241
Dest. Wx: PHNL 180153Z 05017G21KT 10SM FEW024 FEW038 SCT060 27/15 A2999 RMK AO2 SLP156 T02720150
Notes: USTRANSCOM CONTRACT FLIGHT | 1X PER WEEK | PAYLOAD LIMITED | ETOPS